sensor_id;sensor_type;location;lat;lon;timestamp;pressure;altitude;pressure_sealevel;temperature;humidity
550;BME280;20066;48.764;9.176;2023-03-13T00:01:18;97755.72;;;10.77;59.93
550;BME280;20066;48.764;9.176;2023-03-13T00:03:47;97757.97;;;10.86;59.11
550;BME280;20066;48.764;9.176;2023-03-13T00:06:15;97750.44;;;9.72;62.94
550;BME280;20066;48.764;9.176;2023-03-13T00:08:44;97753.31;;;10.24;62.02
550;BME280;20066;48.764;9.176;2023-03-13T00:11:13;97745.06;;;10.59;60.38
550;BME280;20066;48.764;9.176;2023-03-13T00:13:43;97741.06;;;10.85;59.51
550;BME280;20066;48.764;9.176;2023-03-13T00:16:13;97744.78;;;11.02;59.57
550;BME280;20066;48.764;9.176;2023-03-13T00:18:44;97741.00;;;10.92;58.64
550;BME280;20066;48.764;9.176;2023-03-13T00:21:13;97741.31;;;11.01;58.89
550;BME280;20066;48.764;9.176;2023-03-13T00:23:41;97746.25;;;11.10;59.03
550;BME280;20066;48.764;9.176;2023-03-13T00:26:10;97741.56;;;11.17;58.52
550;BME280;20066;48.764;9.176;2023-03-13T00:28:40;97739.25;;;11.19;58.36
550;BME280;20066;48.764;9.176;2023-03-13T00:31:15;97731.06;;;11.30;57.66
550;BME280;20066;48.764;9.176;2023-03-13T00:33:45;97741.66;;;11.07;57.99
550;BME280;20066;48.764;9.176;2023-03-13T00:36:14;97730.81;;;11.17;58.50
550;BME280;20066;48.764;9.176;2023-03-13T00:38:43;97726.16;;;11.21;58.49
550;BME280;20066;48.764;9.176;2023-03-13T00:41:13;97731.34;;;10.98;59.04
550;BME280;20066;48.764;9.176;2023-03-13T00:43:42;97727.22;;;11.31;57.21
550;BME280;20066;48.764;9.176;2023-03-13T00:46:12;97725.03;;;11.19;57.80
550;BME280;20066;48.764;9.176;2023-03-13T00:48:42;97720.75;;;11.21;58.13
550;BME280;20066;48.764;9.176;2023-03-13T00:51:10;97717.38;;;11.14;58.19
550;BME280;20066;48.764;9.176;2023-03-13T00:53:39;97708.94;;;11.12;58.79
550;BME280;20066;48.764;9.176;2023-03-13T00:56:08;97710.66;;;11.33;57.75
550;BME280;20066;48.764;9.176;2023-03-13T00:58:38;97706.47;;;10.87;59.19
550;BME280;20066;48.764;9.176;2023-03-13T01:01:08;97705.38;;;11.22;58.48
550;BME280;20066;48.764;9.176;2023-03-13T01:03:38;97697.75;;;11.17;57.96
550;BME280;20066;48.764;9.176;2023-03-13T01:06:10;97689.03;;;11.02;58.03
550;BME280;20066;48.764;9.176;2023-03-13T01:08:39;97684.50;;;10.96;59.58
550;BME280;20066;48.764;9.176;2023-03-13T01:11:09;97683.69;;;10.99;58.54
550;BME280;20066;48.764;9.176;2023-03-13T01:13:38;97681.88;;;10.89;59.34
550;BME280;20066;48.764;9.176;2023-03-13T01:16:08;97668.81;;;10.83;58.80
550;BME280;20066;48.764;9.176;2023-03-13T01:18:38;97664.69;;;11.13;58.24
550;BME280;20066;48.764;9.176;2023-03-13T01:21:08;97657.34;;;10.76;60.39
550;BME280;20066;48.764;9.176;2023-03-13T01:23:37;97652.34;;;10.78;59.81
550;BME280;20066;48.764;9.176;2023-03-13T01:26:06;97652.63;;;10.91;59.29
550;BME280;20066;48.764;9.176;2023-03-13T01:28:36;97637.88;;;11.06;58.93
550;BME280;20066;48.764;9.176;2023-03-13T01:31:10;97634.16;;;10.89;59.83
550;BME280;20066;48.764;9.176;2023-03-13T01:33:38;97638.47;;;10.83;59.89
550;BME280;20066;48.764;9.176;2023-03-13T01:36:08;97638.00;;;10.43;61.54
550;BME280;20066;48.764;9.176;2023-03-13T01:38:37;97625.13;;;10.69;60.63
550;BME280;20066;48.764;9.176;2023-03-13T01:41:06;97621.03;;;10.98;59.20
550;BME280;20066;48.764;9.176;2023-03-13T01:43:35;97615.53;;;11.09;58.50
550;BME280;20066;48.764;9.176;2023-03-13T01:46:12;97612.00;;;10.78;59.75
550;BME280;20066;48.764;9.176;2023-03-13T01:48:45;97603.88;;;10.37;60.35
550;BME280;20066;48.764;9.176;2023-03-13T01:51:21;97603.50;;;10.83;60.06
550;BME280;20066;48.764;9.176;2023-03-13T01:53:56;97602.19;;;10.98;59.36
550;BME280;20066;48.764;9.176;2023-03-13T01:56:28;97591.09;;;10.93;60.30
550;BME280;20066;48.764;9.176;2023-03-13T01:58:59;97589.88;;;11.01;59.05
550;BME280;20066;48.764;9.176;2023-03-13T02:01:27;97578.50;;;10.86;59.18
550;BME280;20066;48.764;9.176;2023-03-13T02:03:56;97577.47;;;11.10;59.49
550;BME280;20066;48.764;9.176;2023-03-13T02:06:29;97571.28;;;11.13;58.57
550;BME280;20066;48.764;9.176;2023-03-13T02:09:00;97564.53;;;11.32;57.83
550;BME280;20066;48.764;9.176;2023-03-13T02:11:41;97564.94;;;10.56;60.65
550;BME280;20066;48.764;9.176;2023-03-13T02:14:11;97558.78;;;11.30;58.87
550;BME280;20066;48.764;9.176;2023-03-13T02:16:39;97560.31;;;11.28;58.26
550;BME280;20066;48.764;9.176;2023-03-13T02:19:18;97557.38;;;11.18;58.95
550;BME280;20066;48.764;9.176;2023-03-13T02:21:52;97563.34;;;10.99;59.86
550;BME280;20066;48.764;9.176;2023-03-13T02:24:29;97552.31;;;11.24;59.04
550;BME280;20066;48.764;9.176;2023-03-13T02:27:03;97557.88;;;11.10;58.89
550;BME280;20066;48.764;9.176;2023-03-13T02:29:31;97557.97;;;10.99;58.92
550;BME280;20066;48.764;9.176;2023-03-13T02:31:59;97553.34;;;11.03;59.37
550;BME280;20066;48.764;9.176;2023-03-13T02:34:32;97551.63;;;10.82;58.83
550;BME280;20066;48.764;9.176;2023-03-13T02:37:01;97542.69;;;11.53;57.98
550;BME280;20066;48.764;9.176;2023-03-13T02:39:33;97537.88;;;10.73;59.67
550;BME280;20066;48.764;9.176;2023-03-13T02:42:03;97519.81;;;10.74;60.15
550;BME280;20066;48.764;9.176;2023-03-13T02:44:36;97519.88;;;10.67;60.67
550;BME280;20066;48.764;9.176;2023-03-13T02:47:05;97513.56;;;10.47;61.07
550;BME280;20066;48.764;9.176;2023-03-13T02:49:35;97511.94;;;10.90;59.40
550;BME280;20066;48.764;9.176;2023-03-13T02:52:09;97503.72;;;11.35;58.15
550;BME280;20066;48.764;9.176;2023-03-13T02:54:40;97499.44;;;11.37;58.50
550;BME280;20066;48.764;9.176;2023-03-13T02:57:11;97500.31;;;11.00;59.63
550;BME280;20066;48.764;9.176;2023-03-13T02:59:39;97491.34;;;11.10;59.28
550;BME280;20066;48.764;9.176;2023-03-13T03:02:07;97483.97;;;11.45;57.71
550;BME280;20066;48.764;9.176;2023-03-13T03:04:35;97479.31;;;11.76;57.37
550;BME280;20066;48.764;9.176;2023-03-13T03:07:03;97478.22;;;11.73;58.27
550;BME280;20066;48.764;9.176;2023-03-13T03:09:31;97469.06;;;11.37;59.06
550;BME280;20066;48.764;9.176;2023-03-13T03:11:59;97457.88;;;11.69;57.95
550;BME280;20066;48.764;9.176;2023-03-13T03:14:29;97454.00;;;11.70;57.63
550;BME280;20066;48.764;9.176;2023-03-13T03:16:57;97462.13;;;12.36;56.07
550;BME280;20066;48.764;9.176;2023-03-13T03:19:25;97459.22;;;12.27;56.41
550;BME280;20066;48.764;9.176;2023-03-13T03:21:53;97454.94;;;11.83;58.35
550;BME280;20066;48.764;9.176;2023-03-13T03:24:21;97455.66;;;11.60;60.70
550;BME280;20066;48.764;9.176;2023-03-13T03:26:49;97455.88;;;10.89;62.24
550;BME280;20066;48.764;9.176;2023-03-13T03:29:17;97457.63;;;11.29;62.37
550;BME280;20066;48.764;9.176;2023-03-13T03:31:47;97442.56;;;11.35;62.78
550;BME280;20066;48.764;9.176;2023-03-13T03:34:15;97442.59;;;11.32;63.21
550;BME280;20066;48.764;9.176;2023-03-13T03:36:43;97441.63;;;11.45;62.35
550;BME280;20066;48.764;9.176;2023-03-13T03:39:11;97439.13;;;11.04;64.34
550;BME280;20066;48.764;9.176;2023-03-13T03:41:39;97438.81;;;10.99;64.54
550;BME280;20066;48.764;9.176;2023-03-13T03:44:07;97445.00;;;11.26;63.87
550;BME280;20066;48.764;9.176;2023-03-13T03:46:35;97430.25;;;11.61;63.08
550;BME280;20066;48.764;9.176;2023-03-13T03:49:04;97438.25;;;11.41;62.91
550;BME280;20066;48.764;9.176;2023-03-13T03:51:32;97435.28;;;11.32;63.39
550;BME280;20066;48.764;9.176;2023-03-13T03:54:00;97429.44;;;11.10;64.79
550;BME280;20066;48.764;9.176;2023-03-13T03:56:28;97442.53;;;11.66;63.13
550;BME280;20066;48.764;9.176;2023-03-13T03:58:55;97438.25;;;11.91;62.57
550;BME280;20066;48.764;9.176;2023-03-13T04:01:23;97443.88;;;11.77;63.18
550;BME280;20066;48.764;9.176;2023-03-13T04:03:51;97438.88;;;11.76;63.39
550;BME280;20066;48.764;9.176;2023-03-13T04:06:21;97449.72;;;11.45;65.77
550;BME280;20066;48.764;9.176;2023-03-13T04:08:49;97441.59;;;11.49;65.05
550;BME280;20066;48.764;9.176;2023-03-13T04:11:16;97429.94;;;11.82;64.63
550;BME280;20066;48.764;9.176;2023-03-13T04:13:45;97433.50;;;11.99;64.71
550;BME280;20066;48.764;9.176;2023-03-13T04:16:12;97428.06;;;12.03;65.32
550;BME280;20066;48.764;9.176;2023-03-13T04:18:40;97431.44;;;12.07;66.40
550;BME280;20066;48.764;9.176;2023-03-13T04:21:08;97430.47;;;12.20;66.17
550;BME280;20066;48.764;9.176;2023-03-13T04:23:38;97430.34;;;12.04;67.35
550;BME280;20066;48.764;9.176;2023-03-13T04:26:05;97421.06;;;12.05;67.53
550;BME280;20066;48.764;9.176;2023-03-13T04:28:33;97422.09;;;12.34;66.78
550;BME280;20066;48.764;9.176;2023-03-13T04:31:01;97403.38;;;12.27;67.81
550;BME280;20066;48.764;9.176;2023-03-13T04:33:30;97413.31;;;12.70;65.59
550;BME280;20066;48.764;9.176;2023-03-13T04:35:57;97405.56;;;12.32;67.28
550;BME280;20066;48.764;9.176;2023-03-13T04:38:25;97410.84;;;12.40;67.39
550;BME280;20066;48.764;9.176;2023-03-13T04:40:55;97395.19;;;12.31;67.29
550;BME280;20066;48.764;9.176;2023-03-13T04:43:22;97409.94;;;13.05;65.26
550;BME280;20066;48.764;9.176;2023-03-13T04:45:51;97410.16;;;12.55;67.22
550;BME280;20066;48.764;9.176;2023-03-13T04:48:20;97416.78;;;12.31;67.65
550;BME280;20066;48.764;9.176;2023-03-13T04:50:48;97411.31;;;12.34;67.63
550;BME280;20066;48.764;9.176;2023-03-13T04:53:16;97409.78;;;12.33;67.96
550;BME280;20066;48.764;9.176;2023-03-13T04:55:44;97408.38;;;12.85;66.21
550;BME280;20066;48.764;9.176;2023-03-13T04:58:14;97407.72;;;12.41;68.64
550;BME280;20066;48.764;9.176;2023-03-13T05:00:42;97408.28;;;12.92;66.74
550;BME280;20066;48.764;9.176;2023-03-13T05:03:10;97406.53;;;12.62;67.31
550;BME280;20066;48.764;9.176;2023-03-13T05:05:38;97407.94;;;12.90;67.48
550;BME280;20066;48.764;9.176;2023-03-13T05:08:06;97403.81;;;12.03;70.48
550;BME280;20066;48.764;9.176;2023-03-13T05:10:34;97407.78;;;12.37;69.25
550;BME280;20066;48.764;9.176;2023-03-13T05:13:02;97411.13;;;12.65;68.92
550;BME280;20066;48.764;9.176;2023-03-13T05:15:31;97401.16;;;12.62;68.11
550;BME280;20066;48.764;9.176;2023-03-13T05:17:59;97416.03;;;12.70;67.64
550;BME280;20066;48.764;9.176;2023-03-13T05:20:27;97407.19;;;12.50;69.22
550;BME280;20066;48.764;9.176;2023-03-13T05:22:55;97399.81;;;12.30;70.11
550;BME280;20066;48.764;9.176;2023-03-13T05:25:23;97399.06;;;12.10;70.19
550;BME280;20066;48.764;9.176;2023-03-13T05:27:51;97413.59;;;12.56;68.96
550;BME280;20066;48.764;9.176;2023-03-13T05:30:19;97413.59;;;12.36;68.88
550;BME280;20066;48.764;9.176;2023-03-13T05:32:48;97425.94;;;12.96;67.45
550;BME280;20066;48.764;9.176;2023-03-13T05:35:17;97422.78;;;12.19;69.60
550;BME280;20066;48.764;9.176;2023-03-13T05:37:45;97406.88;;;12.44;68.25
550;BME280;20066;48.764;9.176;2023-03-13T05:40:13;97397.06;;;12.34;69.27
550;BME280;20066;48.764;9.176;2023-03-13T05:42:42;97406.19;;;12.99;66.56
550;BME280;20066;48.764;9.176;2023-03-13T05:45:10;97393.78;;;13.02;66.41
550;BME280;20066;48.764;9.176;2023-03-13T05:47:39;97389.91;;;12.83;66.79
550;BME280;20066;48.764;9.176;2023-03-13T05:50:09;97384.91;;;12.65;67.91
550;BME280;20066;48.764;9.176;2023-03-13T05:52:37;97391.75;;;12.50;67.78
550;BME280;20066;48.764;9.176;2023-03-13T05:55:06;97389.25;;;12.79;67.24
550;BME280;20066;48.764;9.176;2023-03-13T05:57:34;97390.91;;;12.93;67.07
550;BME280;20066;48.764;9.176;2023-03-13T06:00:02;97393.25;;;12.91;66.92
550;BME280;20066;48.764;9.176;2023-03-13T06:02:31;97379.81;;;13.39;65.30
550;BME280;20066;48.764;9.176;2023-03-13T06:04:59;97368.78;;;13.34;65.26
550;BME280;20066;48.764;9.176;2023-03-13T06:07:28;97380.78;;;12.77;66.89
550;BME280;20066;48.764;9.176;2023-03-13T06:09:56;97374.25;;;12.38;68.55
550;BME280;20066;48.764;9.176;2023-03-13T06:12:24;97385.63;;;12.86;67.39
550;BME280;20066;48.764;9.176;2023-03-13T06:14:52;97390.00;;;12.60;67.10
550;BME280;20066;48.764;9.176;2023-03-13T06:17:21;97394.16;;;13.04;66.37
550;BME280;20066;48.764;9.176;2023-03-13T06:19:51;97402.50;;;13.09;66.23
550;BME280;20066;48.764;9.176;2023-03-13T06:22:19;97393.56;;;13.12;66.81
550;BME280;20066;48.764;9.176;2023-03-13T06:24:49;97383.56;;;12.73;67.45
550;BME280;20066;48.764;9.176;2023-03-13T06:27:17;97393.25;;;13.27;65.48
550;BME280;20066;48.764;9.176;2023-03-13T06:29:48;97392.91;;;13.25;66.35
550;BME280;20066;48.764;9.176;2023-03-13T06:32:18;97391.75;;;13.74;64.30
550;BME280;20066;48.764;9.176;2023-03-13T06:34:46;97405.31;;;13.38;64.54
550;BME280;20066;48.764;9.176;2023-03-13T06:37:15;97395.53;;;12.92;66.73
550;BME280;20066;48.764;9.176;2023-03-13T06:39:43;97381.94;;;13.48;64.83
550;BME280;20066;48.764;9.176;2023-03-13T06:42:12;97376.16;;;14.11;64.05
550;BME280;20066;48.764;9.176;2023-03-13T06:44:45;97382.13;;;13.73;64.26
550;BME280;20066;48.764;9.176;2023-03-13T06:47:14;97381.19;;;13.64;65.20
550;BME280;20066;48.764;9.176;2023-03-13T06:49:42;97386.91;;;13.98;64.31
550;BME280;20066;48.764;9.176;2023-03-13T06:52:10;97377.38;;;13.77;63.48
550;BME280;20066;48.764;9.176;2023-03-13T06:54:38;97385.06;;;13.79;65.85
550;BME280;20066;48.764;9.176;2023-03-13T06:57:06;97383.16;;;14.08;62.96
550;BME280;20066;48.764;9.176;2023-03-13T06:59:35;97400.09;;;13.64;65.74
550;BME280;20066;48.764;9.176;2023-03-13T07:02:05;97410.50;;;13.65;65.58
550;BME280;20066;48.764;9.176;2023-03-13T07:04:33;97400.53;;;12.74;68.15
550;BME280;20066;48.764;9.176;2023-03-13T07:07:01;97393.25;;;13.27;66.33
550;BME280;20066;48.764;9.176;2023-03-13T07:09:30;97404.53;;;13.05;68.09
550;BME280;20066;48.764;9.176;2023-03-13T07:11:58;97397.97;;;13.71;65.82
550;BME280;20066;48.764;9.176;2023-03-13T07:14:26;97412.19;;;13.07;67.67
550;BME280;20066;48.764;9.176;2023-03-13T07:16:57;97408.28;;;13.76;65.93
550;BME280;20066;48.764;9.176;2023-03-13T07:19:27;97417.22;;;12.89;69.10
550;BME280;20066;48.764;9.176;2023-03-13T07:21:55;97415.31;;;13.90;65.93
550;BME280;20066;48.764;9.176;2023-03-13T07:24:24;97402.19;;;13.40;67.48
550;BME280;20066;48.764;9.176;2023-03-13T07:26:52;97409.94;;;13.05;68.79
550;BME280;20066;48.764;9.176;2023-03-13T07:29:33;97415.72;;;13.56;66.86
550;BME280;20066;48.764;9.176;2023-03-13T07:32:03;97401.28;;;13.63;67.91
550;BME280;20066;48.764;9.176;2023-03-13T07:34:31;97385.94;;;13.60;66.51
550;BME280;20066;48.764;9.176;2023-03-13T07:37:00;97393.22;;;13.91;65.72
550;BME280;20066;48.764;9.176;2023-03-13T07:39:27;97383.53;;;13.45;67.96
550;BME280;20066;48.764;9.176;2023-03-13T07:41:55;97402.88;;;13.60;67.05
550;BME280;20066;48.764;9.176;2023-03-13T07:44:23;97384.06;;;13.57;67.48
550;BME280;20066;48.764;9.176;2023-03-13T07:46:51;97386.81;;;13.85;66.74
550;BME280;20066;48.764;9.176;2023-03-13T07:49:20;97383.53;;;13.29;68.72
550;BME280;20066;48.764;9.176;2023-03-13T07:51:49;97383.63;;;13.90;66.63
550;BME280;20066;48.764;9.176;2023-03-13T07:54:17;97365.03;;;12.95;69.14
550;BME280;20066;48.764;9.176;2023-03-13T07:56:45;97373.41;;;13.49;68.46
550;BME280;20066;48.764;9.176;2023-03-13T07:59:14;97362.78;;;14.20;64.98
550;BME280;20066;48.764;9.176;2023-03-13T08:01:42;97368.25;;;13.55;67.18
550;BME280;20066;48.764;9.176;2023-03-13T08:04:12;97348.94;;;13.40;68.14
550;BME280;20066;48.764;9.176;2023-03-13T08:06:42;97341.81;;;13.79;66.60
550;BME280;20066;48.764;9.176;2023-03-13T08:09:10;97335.19;;;13.96;66.74
550;BME280;20066;48.764;9.176;2023-03-13T08:11:39;97343.19;;;14.00;66.00
550;BME280;20066;48.764;9.176;2023-03-13T08:14:07;97328.03;;;14.18;65.30
550;BME280;20066;48.764;9.176;2023-03-13T08:16:36;97313.84;;;14.14;65.08
550;BME280;20066;48.764;9.176;2023-03-13T08:19:04;97299.50;;;14.30;64.68
550;BME280;20066;48.764;9.176;2023-03-13T08:21:34;97299.13;;;14.57;63.68
550;BME280;20066;48.764;9.176;2023-03-13T08:24:05;97301.09;;;14.15;65.45
550;BME280;20066;48.764;9.176;2023-03-13T08:26:36;97310.16;;;14.37;65.09
550;BME280;20066;48.764;9.176;2023-03-13T08:29:05;97295.47;;;14.89;63.06
550;BME280;20066;48.764;9.176;2023-03-13T08:31:35;97305.88;;;14.90;62.65
550;BME280;20066;48.764;9.176;2023-03-13T08:34:04;97324.69;;;14.94;63.02
550;BME280;20066;48.764;9.176;2023-03-13T08:36:33;97326.09;;;14.86;62.82
550;BME280;20066;48.764;9.176;2023-03-13T08:39:05;97319.81;;;14.76;62.79
550;BME280;20066;48.764;9.176;2023-03-13T08:41:35;97321.94;;;14.43;64.00
550;BME280;20066;48.764;9.176;2023-03-13T08:44:04;97313.69;;;14.21;64.46
550;BME280;20066;48.764;9.176;2023-03-13T08:46:33;97310.81;;;14.54;63.01
550;BME280;20066;48.764;9.176;2023-03-13T08:49:02;97318.53;;;14.14;64.92
550;BME280;20066;48.764;9.176;2023-03-13T08:51:31;97325.84;;;14.42;63.73
550;BME280;20066;48.764;9.176;2023-03-13T08:54:00;97327.41;;;14.81;62.62
550;BME280;20066;48.764;9.176;2023-03-13T08:56:30;97330.25;;;14.90;62.21
550;BME280;20066;48.764;9.176;2023-03-13T08:59:00;97326.03;;;14.35;63.73
550;BME280;20066;48.764;9.176;2023-03-13T09:01:32;97329.41;;;14.39;63.00
550;BME280;20066;48.764;9.176;2023-03-13T09:04:00;97334.78;;;14.81;62.46
550;BME280;20066;48.764;9.176;2023-03-13T09:06:30;97336.50;;;14.75;62.40
550;BME280;20066;48.764;9.176;2023-03-13T09:08:59;97331.06;;;14.62;62.69
550;BME280;20066;48.764;9.176;2023-03-13T09:11:27;97326.94;;;14.57;62.70
550;BME280;20066;48.764;9.176;2023-03-13T09:13:56;97335.84;;;14.71;62.41
550;BME280;20066;48.764;9.176;2023-03-13T09:16:26;97332.59;;;15.01;60.33
550;BME280;20066;48.764;9.176;2023-03-13T09:18:55;97332.72;;;14.97;61.09
550;BME280;20066;48.764;9.176;2023-03-13T09:21:24;97327.63;;;14.74;61.78
550;BME280;20066;48.764;9.176;2023-03-13T09:23:53;97315.94;;;15.15;60.40
550;BME280;20066;48.764;9.176;2023-03-13T09:26:21;97316.56;;;14.94;60.95
550;BME280;20066;48.764;9.176;2023-03-13T09:28:49;97321.13;;;15.69;58.95
550;BME280;20066;48.764;9.176;2023-03-13T09:31:20;97318.38;;;15.48;59.32
550;BME280;20066;48.764;9.176;2023-03-13T09:33:49;97322.97;;;15.25;59.97
550;BME280;20066;48.764;9.176;2023-03-13T09:36:18;97342.00;;;14.84;60.90
550;BME280;20066;48.764;9.176;2023-03-13T09:38:48;97327.66;;;15.12;60.34
550;BME280;20066;48.764;9.176;2023-03-13T09:41:23;97330.38;;;15.12;60.45
550;BME280;20066;48.764;9.176;2023-03-13T09:43:57;97334.63;;;15.60;58.96
550;BME280;20066;48.764;9.176;2023-03-13T09:46:36;97345.75;;;16.09;58.18
550;BME280;20066;48.764;9.176;2023-03-13T09:49:11;97345.59;;;15.91;57.79
550;BME280;20066;48.764;9.176;2023-03-13T09:51:47;97351.06;;;17.09;53.81
550;BME280;20066;48.764;9.176;2023-03-13T09:54:23;97355.16;;;17.14;53.63
550;BME280;20066;48.764;9.176;2023-03-13T09:56:55;97360.00;;;17.95;51.94
550;BME280;20066;48.764;9.176;2023-03-13T09:59:39;97340.09;;;16.16;55.95
550;BME280;20066;48.764;9.176;2023-03-13T10:02:21;97332.63;;;17.81;52.05
550;BME280;20066;48.764;9.176;2023-03-13T10:04:56;97331.91;;;18.26;50.37
550;BME280;20066;48.764;9.176;2023-03-13T10:07:27;97330.03;;;19.10;47.89
550;BME280;20066;48.764;9.176;2023-03-13T10:09:55;97329.53;;;18.00;50.07
550;BME280;20066;48.764;9.176;2023-03-13T10:12:27;97321.56;;;19.08;47.66
550;BME280;20066;48.764;9.176;2023-03-13T10:15:28;97313.22;;;20.07;45.51
550;BME280;20066;48.764;9.176;2023-03-13T10:18:10;97294.56;;;22.61;40.55
550;BME280;20066;48.764;9.176;2023-03-13T10:20:40;97288.66;;;21.50;42.28
550;BME280;20066;48.764;9.176;2023-03-13T10:23:14;97285.81;;;20.90;42.08
550;BME280;20066;48.764;9.176;2023-03-13T10:25:43;97291.72;;;19.85;44.23
550;BME280;20066;48.764;9.176;2023-03-13T10:28:13;97293.03;;;19.66;44.94
550;BME280;20066;48.764;9.176;2023-03-13T10:30:45;97281.88;;;20.32;43.83
550;BME280;20066;48.764;9.176;2023-03-13T10:33:22;97300.81;;;21.29;42.21
550;BME280;20066;48.764;9.176;2023-03-13T10:36:05;97295.25;;;21.79;41.11
550;BME280;20066;48.764;9.176;2023-03-13T10:38:45;97295.66;;;20.67;42.43
550;BME280;20066;48.764;9.176;2023-03-13T10:41:24;97270.38;;;19.36;45.08
550;BME280;20066;48.764;9.176;2023-03-13T10:43:54;97287.22;;;20.12;44.14
550;BME280;20066;48.764;9.176;2023-03-13T10:46:27;97276.56;;;19.60;44.77
550;BME280;20066;48.764;9.176;2023-03-13T10:49:00;97277.06;;;19.02;46.35
550;BME280;20066;48.764;9.176;2023-03-13T10:51:35;97261.72;;;18.39;47.57
550;BME280;20066;48.764;9.176;2023-03-13T10:54:13;97255.84;;;19.30;46.30
550;BME280;20066;48.764;9.176;2023-03-13T10:56:42;97262.28;;;20.33;43.29
550;BME280;20066;48.764;9.176;2023-03-13T10:59:19;97256.31;;;19.05;46.23
550;BME280;20066;48.764;9.176;2023-03-13T11:01:49;97240.41;;;20.04;44.30
550;BME280;20066;48.764;9.176;2023-03-13T11:04:28;97240.63;;;20.00;44.30
550;BME280;20066;48.764;9.176;2023-03-13T11:07:00;97226.47;;;19.87;44.18
550;BME280;20066;48.764;9.176;2023-03-13T11:09:29;97252.66;;;20.67;43.06
550;BME280;20066;48.764;9.176;2023-03-13T11:12:02;97248.28;;;19.73;45.04
550;BME280;20066;48.764;9.176;2023-03-13T11:14:30;97238.28;;;20.23;43.93
550;BME280;20066;48.764;9.176;2023-03-13T11:17:02;97231.50;;;20.33;43.71
550;BME280;20066;48.764;9.176;2023-03-13T11:19:42;97235.84;;;20.54;43.38
550;BME280;20066;48.764;9.176;2023-03-13T11:22:22;97222.22;;;20.74;42.83
550;BME280;20066;48.764;9.176;2023-03-13T11:25:01;97223.19;;;21.47;41.68
550;BME280;20066;48.764;9.176;2023-03-13T11:27:35;97214.00;;;21.09;41.53
550;BME280;20066;48.764;9.176;2023-03-13T11:30:14;97211.81;;;20.14;44.04
550;BME280;20066;48.764;9.176;2023-03-13T11:32:50;97198.41;;;18.53;47.57
550;BME280;20066;48.764;9.176;2023-03-13T11:35:39;97185.91;;;20.24;44.02
550;BME280;20066;48.764;9.176;2023-03-13T11:38:17;97164.81;;;22.07;40.24
550;BME280;20066;48.764;9.176;2023-03-13T11:40:53;97185.19;;;23.06;37.79
550;BME280;20066;48.764;9.176;2023-03-13T11:43:34;97167.97;;;23.05;38.39
550;BME280;20066;48.764;9.176;2023-03-13T11:46:33;97158.63;;;22.44;38.81
550;BME280;20066;48.764;9.176;2023-03-13T11:49:25;97139.81;;;23.11;38.19
550;BME280;20066;48.764;9.176;2023-03-13T11:52:15;97119.63;;;21.97;39.69
550;BME280;20066;48.764;9.176;2023-03-13T11:54:57;97108.03;;;20.84;42.42
550;BME280;20066;48.764;9.176;2023-03-13T11:57:31;97123.56;;;20.23;43.00
550;BME280;20066;48.764;9.176;2023-03-13T12:00:17;97109.00;;;19.52;44.65
550;BME280;20066;48.764;9.176;2023-03-13T12:02:53;97095.16;;;20.90;42.05
550;BME280;20066;48.764;9.176;2023-03-13T12:05:24;97097.50;;;19.48;44.95
550;BME280;20066;48.764;9.176;2023-03-13T12:08:02;97090.38;;;18.98;46.09
550;BME280;20066;48.764;9.176;2023-03-13T12:10:34;97087.44;;;19.98;43.95
550;BME280;20066;48.764;9.176;2023-03-13T12:13:10;97086.47;;;20.51;42.68
550;BME280;20066;48.764;9.176;2023-03-13T12:15:42;97078.72;;;20.64;42.22
550;BME280;20066;48.764;9.176;2023-03-13T12:18:17;97066.78;;;20.88;41.64
550;BME280;20066;48.764;9.176;2023-03-13T12:20:51;97051.13;;;21.08;41.30
550;BME280;20066;48.764;9.176;2023-03-13T12:23:39;97043.59;;;21.03;40.73
550;BME280;20066;48.764;9.176;2023-03-13T12:26:12;97042.56;;;20.55;42.01
550;BME280;20066;48.764;9.176;2023-03-13T12:28:44;97034.81;;;21.20;40.42
550;BME280;20066;48.764;9.176;2023-03-13T12:31:23;97019.66;;;20.32;41.82
550;BME280;20066;48.764;9.176;2023-03-13T12:33:58;97005.91;;;21.13;40.86
550;BME280;20066;48.764;9.176;2023-03-13T12:36:29;97005.84;;;21.59;40.44
550;BME280;20066;48.764;9.176;2023-03-13T12:39:10;96984.88;;;20.73;41.01
550;BME280;20066;48.764;9.176;2023-03-13T12:41:43;96981.91;;;21.54;39.71
550;BME280;20066;48.764;9.176;2023-03-13T12:44:16;96973.69;;;21.91;38.98
550;BME280;20066;48.764;9.176;2023-03-13T12:46:46;96964.34;;;22.03;38.48
550;BME280;20066;48.764;9.176;2023-03-13T12:52:48;96946.72;;;23.69;35.88
550;BME280;20066;48.764;9.176;2023-03-13T12:58:47;96933.44;;;22.67;37.54
550;BME280;20066;48.764;9.176;2023-03-13T13:01:27;96915.63;;;22.29;37.32
550;BME280;20066;48.764;9.176;2023-03-13T13:03:59;96903.47;;;22.47;37.44
550;BME280;20066;48.764;9.176;2023-03-13T13:06:49;96901.03;;;21.96;38.45
550;BME280;20066;48.764;9.176;2023-03-13T13:09:22;96889.75;;;21.03;39.43
550;BME280;20066;48.764;9.176;2023-03-13T13:11:53;96901.31;;;21.55;39.04
550;BME280;20066;48.764;9.176;2023-03-13T13:14:55;96885.47;;;21.65;38.70
550;BME280;20066;48.764;9.176;2023-03-13T13:17:33;96886.22;;;22.24;38.09
550;BME280;20066;48.764;9.176;2023-03-13T13:20:38;96874.47;;;21.59;38.93
550;BME280;20066;48.764;9.176;2023-03-13T13:23:28;96873.13;;;21.86;38.41
550;BME280;20066;48.764;9.176;2023-03-13T13:32:41;96841.09;;;22.03;38.16
550;BME280;20066;48.764;9.176;2023-03-13T13:35:26;96852.38;;;22.39;36.61
550;BME280;20066;48.764;9.176;2023-03-13T13:41:24;96831.94;;;22.28;37.27
550;BME280;20066;48.764;9.176;2023-03-13T13:44:24;96822.38;;;21.42;38.53
550;BME280;20066;48.764;9.176;2023-03-13T13:46:56;96821.44;;;22.10;37.50
550;BME280;20066;48.764;9.176;2023-03-13T13:49:37;96807.56;;;22.42;36.66
550;BME280;20066;48.764;9.176;2023-03-13T13:52:31;96815.53;;;21.69;37.55
550;BME280;20066;48.764;9.176;2023-03-13T13:55:02;96804.59;;;21.75;37.24
550;BME280;20066;48.764;9.176;2023-03-13T13:57:37;96797.63;;;21.68;37.61
550;BME280;20066;48.764;9.176;2023-03-13T14:00:17;96789.38;;;21.63;37.90
550;BME280;20066;48.764;9.176;2023-03-13T14:02:48;96785.06;;;21.45;38.09